Time;durP1;ratioP1;P1;durP2;ratioP2;P2;SDS_P1;SDS_P2;PMS_P1;PMS_P2;Temp;Humidity;BMP_temperature;BMP_pressure;BME280_temperature;BME280_humidity;BME280_pressure;Samples;Min_cycle;Max_cycle;Signal;HPM_P1;HPM_P2
2021/01/15 00:00:58;;;;;;;8.10;5.18;;;0.60;85.80;;;;;;2072669;28;20091;-84
2021/01/15 00:02:03;;;;;;;8.50;5.30;;;0.60;85.80;;;;;;2064922;28;20038;-84
2021/01/15 00:03:04;;;;;;;8.38;4.97;;;0.60;85.80;;;;;;2077996;28;20025;-83
2021/01/15 00:04:05;;;;;;;8.75;5.38;;;0.60;85.70;;;;;;2082062;28;20507;-84
2021/01/15 00:05:06;;;;;;;8.52;5.25;;;0.60;85.70;;;;;;2084859;28;20029;-84
2021/01/15 00:06:07;;;;;;;8.45;5.00;;;0.60;85.70;;;;;;2080305;28;20034;-84
2021/01/15 00:07:08;;;;;;;9.00;5.05;;;0.70;85.70;;;;;;2090604;28;20426;-84
2021/01/15 00:08:08;;;;;;;9.48;5.40;;;0.60;85.50;;;;;;2093637;28;20128;-84
2021/01/15 00:09:09;;;;;;;8.52;5.50;;;0.60;86.10;;;;;;2081334;28;20376;-84
2021/01/15 00:10:10;;;;;;;8.20;4.90;;;0.60;85.50;;;;;;2080758;28;20044;-84
2021/01/15 00:11:26;;;;;;;7.93;4.95;;;0.60;85.50;;;;;;2081927;28;20490;-84
2021/01/15 00:12:27;;;;;;;8.63;4.75;;;0.60;85.50;;;;;;2075175;28;20482;-84
2021/01/15 00:13:27;;;;;;;7.75;4.78;;;0.70;85.50;;;;;;2090500;28;20025;-84
2021/01/15 00:14:28;;;;;;;7.30;4.90;;;0.70;85.50;;;;;;2089653;28;20099;-84
2021/01/15 00:15:28;;;;;;;7.22;4.90;;;0.70;85.40;;;;;;2092407;28;20028;-84
2021/01/15 00:16:31;;;;;;;8.52;5.00;;;0.70;85.40;;;;;;2081160;28;20037;-84
2021/01/15 00:17:34;;;;;;;9.23;5.10;;;0.70;85.30;;;;;;2064688;28;20373;-84
2021/01/15 00:18:35;;;;;;;7.40;4.60;;;0.70;85.30;;;;;;2069141;28;20125;-84
2021/01/15 00:19:36;;;;;;;9.98;5.05;;;0.70;85.20;;;;;;2069108;28;20029;-84
2021/01/15 00:20:36;;;;;;;9.15;5.05;;;0.70;85.20;;;;;;2069083;28;20392;-84
2021/01/15 00:21:48;;;;;;;8.15;4.90;;;0.80;85.20;;;;;;2066429;28;20030;-84
2021/01/15 00:22:48;;;;;;;7.15;4.05;;;0.80;85.10;;;;;;2075541;28;20078;-84
2021/01/15 00:23:56;;;;;;;8.43;4.82;;;0.80;85.00;;;;;;2083449;28;20486;-84
2021/01/15 00:24:57;;;;;;;8.57;4.75;;;0.80;85.00;;;;;;2088766;28;20124;-83
2021/01/15 00:26:00;;;;;;;7.10;4.53;;;0.80;84.80;;;;;;2082492;28;20026;-84
2021/01/15 00:27:01;;;;;;;7.82;5.05;;;0.80;84.80;;;;;;2081285;28;20080;-84
2021/01/15 00:28:01;;;;;;;7.75;4.13;;;0.80;84.60;;;;;;2081451;28;20495;-84
2021/01/15 00:29:02;;;;;;;7.82;4.72;;;0.90;84.60;;;;;;2081782;28;20018;-84
2021/01/15 00:30:05;;;;;;;7.70;4.57;;;0.90;84.50;;;;;;2071625;28;20036;-84
2021/01/15 00:31:06;;;;;;;6.70;4.43;;;0.90;84.40;;;;;;2081234;28;20055;-83
2021/01/15 00:32:06;;;;;;;8.05;4.55;;;0.90;84.40;;;;;;2089065;28;20037;-83
2021/01/15 00:33:07;;;;;;;6.43;4.22;;;0.90;84.30;;;;;;2086150;28;20126;-83
2021/01/15 00:34:09;;;;;;;7.60;4.97;;;0.90;84.90;;;;;;2088781;28;20029;-85
2021/01/15 00:35:10;;;;;;;6.43;3.78;;;1.00;84.30;;;;;;2089598;28;20120;-84
2021/01/15 00:36:12;;;;;;;6.78;4.20;;;1.00;84.20;;;;;;2072965;28;20519;-83
2021/01/15 00:37:12;;;;;;;7.57;4.55;;;1.00;84.10;;;;;;2078394;28;20025;-84
2021/01/15 00:38:13;;;;;;;7.18;4.47;;;1.00;84.10;;;;;;2078447;28;20415;-84
2021/01/15 00:39:14;;;;;;;7.22;4.38;;;1.00;84.00;;;;;;2084104;28;20072;-83
2021/01/15 00:40:15;;;;;;;7.82;4.45;;;1.00;84.00;;;;;;2087007;28;20057;-83
2021/01/15 00:41:16;;;;;;;8.50;4.15;;;1.00;83.90;;;;;;2080594;28;20095;-84
2021/01/15 00:42:17;;;;;;;8.68;4.68;;;1.00;83.90;;;;;;2089947;28;20490;-84
2021/01/15 00:43:17;;;;;;;6.63;4.32;;;1.00;83.70;;;;;;2093853;28;20178;-84
2021/01/15 00:44:18;;;;;;;7.05;4.10;;;1.10;84.30;;;;;;2081169;28;20053;-84
2021/01/15 00:45:19;;;;;;;7.50;4.47;;;1.10;83.60;;;;;;2079545;28;20037;-84
2021/01/15 00:46:31;;;;;;;6.60;3.70;;;1.10;83.60;;;;;;2078480;28;20129;-84
2021/01/15 00:47:32;;;;;;;6.47;3.88;;;1.10;83.50;;;;;;2079716;28;20026;-84
2021/01/15 00:48:36;;;;;;;7.30;4.28;;;1.10;83.60;;;;;;2065944;28;20373;-84
2021/01/15 00:49:36;;;;;;;7.07;4.22;;;1.10;83.50;;;;;;2062775;28;20512;-84
2021/01/15 00:50:37;;;;;;;5.90;3.70;;;1.10;83.40;;;;;;2094418;28;20029;-84
2021/01/15 00:51:38;;;;;;;6.60;4.00;;;1.10;83.40;;;;;;2088470;28;20048;-83
2021/01/15 00:52:39;;;;;;;6.55;4.07;;;1.10;83.40;;;;;;2072635;28;20179;-83
2021/01/15 00:53:40;;;;;;;5.85;3.67;;;1.10;83.40;;;;;;2096878;28;20046;-83
2021/01/15 00:54:40;;;;;;;6.78;3.95;;;1.10;83.30;;;;;;2097027;28;20032;-85
2021/01/15 00:55:43;;;;;;;8.13;3.92;;;1.20;83.30;;;;;;2072622;28;20022;-84
2021/01/15 00:56:44;;;;;;;6.28;3.90;;;1.20;83.90;;;;;;2068200;28;20031;-84
2021/01/15 00:57:44;;;;;;;6.35;3.80;;;1.20;83.20;;;;;;2088839;28;20463;-84
2021/01/15 00:58:49;;;;;;;5.72;3.80;;;1.20;83.10;;;;;;2088741;28;20086;-84
2021/01/15 00:59:50;;;;;;;6.75;3.88;;;1.20;83.10;;;;;;2080800;28;20060;-84
2021/01/15 01:00:51;;;;;;;5.93;3.92;;;1.20;83.00;;;;;;2078337;28;20034;-84
2021/01/15 01:01:51;;;;;;;7.25;4.07;;;1.20;83.00;;;;;;2080920;28;20033;-84
2021/01/15 01:02:55;;;;;;;6.43;3.78;;;1.20;83.00;;;;;;2075740;28;20032;-84
2021/01/15 01:03:55;;;;;;;6.40;3.97;;;1.20;83.00;;;;;;2072811;28;20022;-84
2021/01/15 01:04:56;;;;;;;6.78;4.05;;;1.20;83.00;;;;;;2081532;28;20035;-84
2021/01/15 01:05:57;;;;;;;6.70;4.55;;;1.20;83.00;;;;;;2070739;28;20072;-85
2021/01/15 01:06:57;;;;;;;4.88;3.22;;;1.20;82.90;;;;;;2077688;28;20041;-85
2021/01/15 01:07:58;;;;;;;6.22;3.72;;;1.20;82.90;;;;;;2089244;28;20163;-84
2021/01/15 01:09:02;;;;;;;6.80;3.55;;;1.20;82.90;;;;;;2097447;28;20027;-84
2021/01/15 01:10:04;;;;;;;6.22;3.80;;;1.20;82.90;;;;;;2090788;28;20027;-84
2021/01/15 01:11:20;;;;;;;7.85;4.47;;;1.30;82.90;;;;;;2073489;28;20551;-85
2021/01/15 01:12:20;;;;;;;7.47;3.63;;;1.30;82.80;;;;;;2068678;28;20125;-84
2021/01/15 01:13:21;;;;;;;6.43;3.50;;;1.30;82.80;;;;;;2072672;28;20019;-85
2021/01/15 01:14:21;;;;;;;6.57;4.03;;;1.30;82.80;;;;;;2076065;28;20060;-85
2021/01/15 01:15:22;;;;;;;6.80;4.07;;;1.20;82.50;;;;;;2067328;28;20033;-85
2021/01/15 01:16:27;;;;;;;6.53;3.80;;;1.20;82.50;;;;;;2072618;28;20022;-84
2021/01/15 01:17:27;;;;;;;6.10;3.70;;;1.30;82.60;;;;;;2075831;28;20030;-84
2021/01/15 01:18:28;;;;;;;6.65;3.78;;;1.30;82.60;;;;;;2087504;28;20082;-84
2021/01/15 01:19:28;;;;;;;6.07;3.65;;;1.30;82.60;;;;;;2079028;28;20488;-84
2021/01/15 01:20:29;;;;;;;6.53;3.50;;;1.30;82.60;;;;;;2088630;28;20061;-84
2021/01/15 01:21:32;;;;;;;7.00;3.85;;;1.30;82.60;;;;;;2072392;28;20480;-84
2021/01/15 01:22:33;;;;;;;8.13;4.50;;;1.30;82.50;;;;;;2083043;28;20137;-84
2021/01/15 01:23:34;;;;;;;5.82;3.65;;;1.30;82.50;;;;;;2093976;28;20440;-84
2021/01/15 01:24:34;;;;;;;6.50;4.00;;;1.30;82.50;;;;;;2088006;28;20112;-83
2021/01/15 01:25:35;;;;;;;6.90;4.20;;;1.30;82.50;;;;;;2080815;28;20613;-84
2021/01/15 01:26:35;;;;;;;6.45;3.80;;;1.30;82.60;;;;;;2089428;28;20029;-84
2021/01/15 01:27:36;;;;;;;7.72;4.35;;;1.30;82.50;;;;;;2093503;28;20028;-84
2021/01/15 01:28:37;;;;;;;7.75;4.13;;;1.30;82.60;;;;;;2081283;28;20029;-84
2021/01/15 01:29:38;;;;;;;7.25;4.10;;;1.30;82.50;;;;;;2080903;28;20060;-84
2021/01/15 01:30:38;;;;;;;7.47;4.45;;;1.30;82.40;;;;;;2081084;28;20038;-84
2021/01/15 01:31:39;;;;;;;7.25;4.40;;;1.30;82.40;;;;;;2079630;28;20135;-83
2021/01/15 01:32:40;;;;;;;7.32;4.20;;;1.30;82.50;;;;;;2079882;28;20033;-83
2021/01/15 01:33:42;;;;;;;6.70;4.22;;;1.30;82.50;;;;;;2088539;28;20060;-83
2021/01/15 01:34:43;;;;;;;7.88;4.32;;;1.30;82.60;;;;;;2080670;28;20038;-83
2021/01/15 01:35:44;;;;;;;8.15;4.47;;;1.30;83.10;;;;;;2097692;28;20027;-83
2021/01/15 01:36:45;;;;;;;8.00;4.15;;;1.30;82.60;;;;;;2094465;28;20051;-83
2021/01/15 01:37:45;;;;;;;6.68;3.85;;;1.30;82.60;;;;;;2092652;28;20071;-83
2021/01/15 01:38:46;;;;;;;7.85;4.15;;;1.30;82.60;;;;;;2095870;28;20036;-83
2021/01/15 01:39:46;;;;;;;6.13;3.90;;;1.30;82.60;;;;;;2085058;28;20025;-83
2021/01/15 01:40:47;;;;;;;7.60;4.35;;;1.30;82.70;;;;;;2073298;28;20045;-83
2021/01/15 01:41:48;;;;;;;6.68;4.28;;;1.30;83.30;;;;;;2067157;28;20152;-83
2021/01/15 01:42:48;;;;;;;6.95;4.20;;;1.30;82.70;;;;;;2079727;28;20069;-83
2021/01/15 01:43:49;;;;;;;6.90;3.92;;;1.30;82.60;;;;;;2076958;28;20614;-83
2021/01/15 01:44:50;;;;;;;7.82;4.40;;;1.30;82.70;;;;;;2063958;28;20026;-83
2021/01/15 01:45:50;;;;;;;7.57;4.43;;;1.30;82.70;;;;;;2072282;28;20044;-83
2021/01/15 01:46:52;;;;;;;7.90;4.65;;;1.30;82.80;;;;;;2072837;28;20420;-83
2021/01/15 01:47:54;;;;;;;7.68;4.20;;;1.30;82.70;;;;;;2084535;28;20064;-84
2021/01/15 01:48:55;;;;;;;6.97;4.00;;;1.30;82.70;;;;;;2088264;28;20025;-84
2021/01/15 01:49:55;;;;;;;7.55;4.20;;;1.30;82.70;;;;;;2088570;28;20017;-83
2021/01/15 01:50:56;;;;;;;8.27;4.55;;;1.30;82.80;;;;;;2079675;28;20026;-83
2021/01/15 01:51:58;;;;;;;7.10;4.43;;;1.20;82.70;;;;;;2080865;28;20075;-83
2021/01/15 01:53:00;;;;;;;7.22;4.47;;;1.20;82.80;;;;;;2079748;28;20049;-84
2021/01/15 01:54:01;;;;;;;7.03;4.47;;;1.20;82.70;;;;;;2081334;28;20112;-83
2021/01/15 01:55:03;;;;;;;7.13;4.45;;;1.30;82.80;;;;;;2088574;28;20495;-82
2021/01/15 01:56:05;;;;;;;6.72;4.20;;;1.30;82.80;;;;;;2096335;28;20026;-83
2021/01/15 01:57:07;;;;;;;8.20;4.15;;;1.20;82.70;;;;;;2096132;28;20130;-83
2021/01/15 01:58:17;;;;;;;6.55;3.67;;;1.20;82.80;;;;;;2079954;28;20538;-83
2021/01/15 01:59:17;;;;;;;7.22;3.83;;;1.30;82.90;;;;;;2098655;28;20037;-83
2021/01/15 02:00:18;;;;;;;7.57;3.95;;;1.30;82.90;;;;;;2091190;28;20021;-83
2021/01/15 02:01:20;;;;;;;7.70;4.10;;;1.30;82.90;;;;;;2089005;28;20040;-83
2021/01/15 02:02:21;;;;;;;6.97;4.45;;;1.30;82.90;;;;;;2088454;28;20676;-83
2021/01/15 02:03:21;;;;;;;7.68;3.85;;;1.30;82.90;;;;;;2088086;28;20033;-83
2021/01/15 02:04:25;;;;;;;7.18;4.32;;;1.30;82.90;;;;;;2087394;28;20218;-84
2021/01/15 02:05:26;;;;;;;8.30;4.60;;;1.30;82.90;;;;;;2086160;28;20029;-83
2021/01/15 02:06:27;;;;;;;6.28;4.00;;;1.20;82.90;;;;;;2080637;28;20029;-84
2021/01/15 02:07:28;;;;;;;7.22;4.35;;;1.20;82.90;;;;;;2072532;28;20061;-83
2021/01/15 02:08:29;;;;;;;6.55;4.20;;;1.20;83.00;;;;;;2091493;28;20453;-83
2021/01/15 02:09:55;;;;;;;6.63;4.15;;;1.20;83.00;;;;;;2096745;28;20056;-83
2021/01/15 02:11:14;;;;;;;6.03;3.80;;;1.20;82.90;;;;;;2099504;28;20122;-84
2021/01/15 02:12:43;;;;;;;6.53;4.03;;;1.20;82.90;;;;;;2087653;28;20036;-83
2021/01/15 02:13:51;;;;;;;7.07;4.10;;;1.20;82.90;;;;;;2088897;28;20029;-81
2021/01/15 02:15:23;;;;;;;6.88;4.25;;;1.20;82.90;;;;;;2083469;28;20030;-81
2021/01/15 02:16:27;;;;;;;5.70;3.75;;;1.20;82.90;;;;;;2084290;28;20025;-83
2021/01/15 02:17:34;;;;;;;7.43;4.22;;;1.20;83.00;;;;;;2088259;28;20055;-83
2021/01/15 02:18:41;;;;;;;8.57;5.07;;;1.20;83.00;;;;;;2089587;28;20032;-83
2021/01/15 02:19:54;;;;;;;7.93;4.78;;;1.20;82.90;;;;;;2089009;28;20025;-83
2021/01/15 02:21:17;;;;;;;6.65;4.15;;;1.20;83.00;;;;;;2075834;28;20026;-83
2021/01/15 02:22:35;;;;;;;6.95;4.35;;;1.20;82.90;;;;;;2086301;28;20037;-83
2021/01/15 02:23:44;;;;;;;7.53;4.60;;;1.20;82.90;;;;;;2098483;28;20135;-83
2021/01/15 02:25:26;;;;;;;6.68;4.10;;;1.20;82.90;;;;;;2090511;28;20040;-83
2021/01/15 02:26:41;;;;;;;6.60;4.20;;;1.20;82.90;;;;;;2084967;28;20033;-83
2021/01/15 02:28:09;;;;;;;7.03;4.00;;;1.20;82.90;;;;;;2080155;28;20073;-82
2021/01/15 02:29:16;;;;;;;8.00;4.22;;;1.20;82.90;;;;;;2089400;28;20061;-82
2021/01/15 02:30:34;;;;;;;7.70;3.92;;;1.20;82.90;;;;;;2093045;28;20034;-83
2021/01/15 02:32:06;;;;;;;6.65;4.35;;;1.20;83.00;;;;;;2099220;28;20045;-83
2021/01/15 02:33:31;;;;;;;7.22;4.50;;;1.20;83.00;;;;;;2091821;28;20037;-82
2021/01/15 02:34:59;;;;;;;7.10;4.13;;;1.20;83.00;;;;;;2087139;28;20043;-82
2021/01/15 02:36:14;;;;;;;8.30;4.38;;;1.20;83.00;;;;;;2101494;28;20020;-84
2021/01/15 02:37:49;;;;;;;7.93;4.63;;;1.20;83.00;;;;;;2088350;28;20112;-83
2021/01/15 02:39:28;;;;;;;8.75;4.93;;;1.20;83.10;;;;;;2092199;28;20021;-83
2021/01/15 02:40:56;;;;;;;8.27;4.47;;;1.20;83.10;;;;;;2088820;28;20052;-84
2021/01/15 02:41:59;;;;;;;8.00;4.80;;;1.20;83.10;;;;;;2107770;28;20501;-84
2021/01/15 02:43:02;;;;;;;8.30;5.13;;;1.20;83.00;;;;;;2098615;28;20020;-84
2021/01/15 02:44:05;;;;;;;8.73;5.07;;;1.20;83.10;;;;;;2082137;28;20025;-82
2021/01/15 02:45:11;;;;;;;7.78;4.43;;;1.20;83.10;;;;;;2077265;28;20121;-84
2021/01/15 02:46:16;;;;;;;9.13;5.70;;;1.20;83.10;;;;;;2082452;28;20043;-83
2021/01/15 02:47:29;;;;;;;8.05;4.80;;;1.20;83.10;;;;;;2090493;28;20059;-84
2021/01/15 02:48:31;;;;;;;7.22;4.70;;;1.20;83.20;;;;;;2089383;28;20491;-83
2021/01/15 02:49:34;;;;;;;7.03;4.38;;;1.20;83.20;;;;;;2082461;28;20080;-83
2021/01/15 02:50:34;;;;;;;8.13;5.15;;;1.20;83.20;;;;;;2074753;28;20060;-84
2021/01/15 02:51:39;;;;;;;7.20;5.00;;;1.20;83.30;;;;;;2074673;28;20029;-84
2021/01/15 02:52:41;;;;;;;7.60;4.97;;;1.20;83.30;;;;;;2082923;28;20423;-84
2021/01/15 02:53:43;;;;;;;7.20;4.43;;;1.20;83.40;;;;;;2083690;28;20024;-83
2021/01/15 02:54:44;;;;;;;7.93;5.20;;;1.20;83.40;;;;;;2095963;28;20104;-83
2021/01/15 02:55:45;;;;;;;8.45;5.53;;;1.20;83.40;;;;;;2094278;28;20029;-84
2021/01/15 02:56:45;;;;;;;7.95;5.03;;;1.20;83.40;;;;;;2091442;28;20005;-84
2021/01/15 02:57:47;;;;;;;7.88;5.10;;;1.20;83.50;;;;;;2082902;28;20116;-83
2021/01/15 02:58:48;;;;;;;8.13;5.10;;;1.20;83.50;;;;;;2084174;28;20519;-84
2021/01/15 02:59:48;;;;;;;8.35;5.32;;;1.20;83.50;;;;;;2092493;28;20116;-83
2021/01/15 03:00:49;;;;;;;7.68;5.32;;;1.20;83.60;;;;;;2089234;28;20048;-83
2021/01/15 03:02:20;;;;;;;8.43;5.60;;;1.20;83.60;;;;;;2067485;28;20076;-83
2021/01/15 03:03:28;;;;;;;8.40;4.85;;;1.20;83.60;;;;;;2074583;28;20227;-83
2021/01/15 03:04:50;;;;;;;7.68;4.60;;;1.20;83.70;;;;;;2083562;28;20080;-83
2021/01/15 03:06:18;;;;;;;7.38;4.90;;;1.20;83.70;;;;;;2087300;28;20026;-81
2021/01/15 03:07:22;;;;;;;9.45;4.93;;;1.20;83.70;;;;;;2088289;28;20032;-83
2021/01/15 03:08:24;;;;;;;7.07;4.50;;;1.20;83.70;;;;;;2089407;28;20025;-83
2021/01/15 03:09:29;;;;;;;7.82;5.00;;;1.20;83.70;;;;;;2097946;28;20024;-83
2021/01/15 03:10:30;;;;;;;7.75;4.85;;;1.20;83.70;;;;;;2089608;28;20029;-84
2021/01/15 03:11:32;;;;;;;7.57;4.70;;;1.20;84.40;;;;;;2087896;28;20041;-82
2021/01/15 03:12:35;;;;;;;7.70;5.10;;;1.20;83.80;;;;;;2080994;28;20037;-83
2021/01/15 03:13:36;;;;;;;7.38;4.70;;;1.20;83.80;;;;;;2067522;28;20559;-83
2021/01/15 03:14:38;;;;;;;7.75;5.07;;;1.20;84.40;;;;;;2079960;28;20592;-83
2021/01/15 03:15:40;;;;;;;8.70;5.15;;;1.20;83.90;;;;;;2086174;28;20130;-83
2021/01/15 03:16:42;;;;;;;7.68;4.80;;;1.20;83.90;;;;;;2085103;28;20036;-83
2021/01/15 03:17:45;;;;;;;7.40;4.88;;;1.20;84.00;;;;;;2090664;28;20021;-83
2021/01/15 03:18:49;;;;;;;7.90;4.90;;;1.20;84.00;;;;;;2105215;28;20123;-83
2021/01/15 03:19:50;;;;;;;9.55;5.32;;;1.20;84.10;;;;;;2098139;28;20025;-83
2021/01/15 03:20:51;;;;;;;6.82;4.70;;;1.20;84.10;;;;;;2079124;28;20041;-83
2021/01/15 03:21:52;;;;;;;8.98;5.18;;;1.20;84.20;;;;;;2073855;28;20029;-83
2021/01/15 03:22:53;;;;;;;7.07;4.70;;;1.20;84.20;;;;;;2073488;28;20088;-83
2021/01/15 03:23:55;;;;;;;9.07;5.32;;;1.20;84.20;;;;;;2085933;28;20064;-83
2021/01/15 03:24:58;;;;;;;9.10;5.45;;;1.20;84.30;;;;;;2090028;28;20102;-83
2021/01/15 03:25:59;;;;;;;8.35;5.45;;;1.20;84.30;;;;;;2076250;28;20061;-83
2021/01/15 03:27:01;;;;;;;8.20;5.60;;;1.20;84.30;;;;;;2083498;28;20045;-83
2021/01/15 03:28:01;;;;;;;8.32;5.40;;;1.20;84.40;;;;;;2093230;28;20414;-84
2021/01/15 03:29:05;;;;;;;9.90;5.63;;;1.20;84.50;;;;;;2073817;28;20030;-83
2021/01/15 03:30:06;;;;;;;9.43;5.65;;;1.20;84.50;;;;;;2080544;28;20033;-83
2021/01/15 03:31:07;;;;;;;9.52;5.38;;;1.20;84.50;;;;;;2092674;28;20029;-83
2021/01/15 03:32:08;;;;;;;7.95;5.07;;;1.20;84.60;;;;;;2081920;28;20530;-83
2021/01/15 03:33:08;;;;;;;7.85;4.80;;;1.20;84.60;;;;;;2066023;28;20022;-83
2021/01/15 03:34:09;;;;;;;7.90;4.93;;;1.20;84.70;;;;;;2073241;28;20068;-83
2021/01/15 03:35:22;;;;;;;8.32;5.35;;;1.20;84.70;;;;;;2080394;28;20087;-83
2021/01/15 03:36:23;;;;;;;9.10;5.32;;;1.20;84.70;;;;;;2075351;28;20177;-83
2021/01/15 03:37:23;;;;;;;9.38;5.72;;;1.20;84.70;;;;;;2081545;28;20556;-84
2021/01/15 03:38:24;;;;;;;8.20;5.32;;;1.20;84.70;;;;;;2081003;28;20029;-83
2021/01/15 03:39:24;;;;;;;9.25;5.22;;;1.20;84.80;;;;;;2090210;28;20029;-83
2021/01/15 03:40:28;;;;;;;8.75;5.50;;;1.20;84.80;;;;;;2085874;28;20464;-84
2021/01/15 03:41:28;;;;;;;9.38;5.50;;;1.20;84.90;;;;;;2082222;28;20061;-84
2021/01/15 03:42:29;;;;;;;8.88;5.80;;;1.20;84.90;;;;;;2092470;28;20032;-83
2021/01/15 03:43:30;;;;;;;9.63;5.88;;;1.20;85.00;;;;;;2089556;28;20509;-83
2021/01/15 03:44:30;;;;;;;8.50;5.50;;;1.20;85.00;;;;;;2091174;28;20033;-84
2021/01/15 03:45:31;;;;;;;9.48;5.35;;;1.20;85.00;;;;;;2100789;28;20379;-83
2021/01/15 03:46:32;;;;;;;8.43;5.32;;;1.20;85.20;;;;;;2086180;28;20025;-83
2021/01/15 03:47:32;;;;;;;10.07;6.13;;;1.20;85.20;;;;;;2091692;28;20033;-83
2021/01/15 03:48:33;;;;;;;9.93;5.80;;;1.20;85.20;;;;;;2086099;28;20127;-83
2021/01/15 03:49:33;;;;;;;8.82;5.85;;;1.20;85.20;;;;;;2073059;28;20030;-83
2021/01/15 03:50:35;;;;;;;8.82;5.60;;;1.20;85.20;;;;;;2077511;28;20033;-83
2021/01/15 03:51:39;;;;;;;10.50;6.28;;;1.20;85.20;;;;;;2090036;28;20018;-83
2021/01/15 03:52:40;;;;;;;9.38;6.10;;;1.20;85.30;;;;;;2097901;28;20044;-83
2021/01/15 03:53:44;;;;;;;10.35;5.95;;;1.20;85.30;;;;;;2085264;28;20025;-83
2021/01/15 03:54:45;;;;;;;8.68;5.30;;;1.20;85.40;;;;;;2089896;28;20029;-83
2021/01/15 03:55:47;;;;;;;9.57;5.80;;;1.20;85.40;;;;;;2079266;28;20503;-84
2021/01/15 03:56:50;;;;;;;8.95;5.57;;;1.20;85.40;;;;;;2089686;28;20032;-84
2021/01/15 03:57:50;;;;;;;8.95;5.03;;;1.30;85.50;;;;;;2086207;28;20457;-83
2021/01/15 03:58:51;;;;;;;9.40;5.65;;;1.30;85.50;;;;;;2081774;28;20021;-84
2021/01/15 03:59:51;;;;;;;8.55;5.88;;;1.30;85.50;;;;;;2084075;28;20021;-83
2021/01/15 04:00:52;;;;;;;9.05;5.07;;;1.30;85.50;;;;;;2079654;28;20529;-83
2021/01/15 04:01:53;;;;;;;7.88;5.07;;;1.20;85.50;;;;;;2073275;28;20032;-83
2021/01/15 04:02:54;;;;;;;8.88;4.90;;;1.30;85.60;;;;;;2077292;28;20029;-83
2021/01/15 04:03:55;;;;;;;8.15;5.32;;;1.20;85.60;;;;;;2072831;28;20483;-83
2021/01/15 04:04:55;;;;;;;8.27;5.25;;;1.30;85.70;;;;;;2069185;28;20106;-83
2021/01/15 04:05:56;;;;;;;8.68;5.25;;;1.30;85.70;;;;;;2071872;28;20108;-84
2021/01/15 04:06:59;;;;;;;9.25;5.05;;;1.30;85.60;;;;;;2081815;28;20483;-83
2021/01/15 04:07:59;;;;;;;8.65;5.55;;;1.30;85.70;;;;;;2080853;28;20025;-84
2021/01/15 04:09:00;;;;;;;8.40;5.63;;;1.30;85.70;;;;;;2083787;28;20391;-83
2021/01/15 04:10:01;;;;;;;8.88;5.35;;;1.30;85.70;;;;;;2081918;28;20033;-84
2021/01/15 04:11:01;;;;;;;8.27;5.20;;;1.30;85.80;;;;;;2074060;28;20032;-83
2021/01/15 04:12:02;;;;;;;9.25;5.35;;;1.20;85.70;;;;;;2076876;28;20034;-83
2021/01/15 04:13:03;;;;;;;8.95;5.72;;;1.30;85.80;;;;;;2085301;28;20119;-83
2021/01/15 04:14:03;;;;;;;8.07;5.43;;;1.20;85.70;;;;;;2080810;28;20017;-84
2021/01/15 04:15:09;;;;;;;10.00;5.82;;;1.30;85.80;;;;;;2073080;28;20527;-83
2021/01/15 04:16:17;;;;;;;9.35;5.57;;;1.30;85.90;;;;;;2088604;28;20497;-83
2021/01/15 04:17:17;;;;;;;9.48;5.80;;;1.30;85.80;;;;;;2080785;28;20027;-83
2021/01/15 04:18:18;;;;;;;10.23;6.30;;;1.20;85.80;;;;;;2073796;28;20033;-83
2021/01/15 04:19:18;;;;;;;9.30;6.18;;;1.30;85.90;;;;;;2081757;28;20738;-83
2021/01/15 04:20:19;;;;;;;11.50;6.55;;;1.30;85.90;;;;;;2073415;28;20038;-83
2021/01/15 04:21:20;;;;;;;10.70;6.55;;;1.20;85.80;;;;;;2089612;28;20029;-83
2021/01/15 04:22:20;;;;;;;8.93;6.30;;;1.20;85.80;;;;;;2089343;28;20052;-83
2021/01/15 04:23:21;;;;;;;9.77;6.03;;;1.30;85.90;;;;;;2080230;28;20029;-83
2021/01/15 04:24:22;;;;;;;8.80;5.93;;;1.30;85.90;;;;;;2097997;28;20058;-84
2021/01/15 04:25:23;;;;;;;9.57;5.85;;;1.30;86.00;;;;;;2097483;28;20029;-83
2021/01/15 04:26:24;;;;;;;10.20;6.35;;;1.30;86.00;;;;;;2098051;28;20032;-83
2021/01/15 04:27:29;;;;;;;10.60;6.47;;;1.30;86.00;;;;;;2091719;28;20052;-83
2021/01/15 04:28:29;;;;;;;9.65;6.20;;;1.30;86.00;;;;;;2080527;28;20364;-83
2021/01/15 04:29:30;;;;;;;9.57;5.47;;;1.30;86.00;;;;;;2097501;28;20035;-83
2021/01/15 04:30:30;;;;;;;8.25;5.40;;;1.30;86.00;;;;;;2088060;28;20025;-83
2021/01/15 04:31:31;;;;;;;7.95;4.97;;;1.30;86.10;;;;;;2074561;28;20037;-82
2021/01/15 04:32:32;;;;;;;7.95;5.40;;;1.30;86.10;;;;;;2081471;28;20038;-83
2021/01/15 04:33:34;;;;;;;8.65;5.63;;;1.30;86.10;;;;;;2080983;28;20383;-83
2021/01/15 04:34:34;;;;;;;7.47;5.30;;;1.30;86.10;;;;;;2078662;28;20054;-83
2021/01/15 04:35:35;;;;;;;10.07;5.45;;;1.30;86.10;;;;;;2060194;28;20022;-83
2021/01/15 04:36:36;;;;;;;9.05;5.80;;;1.30;86.10;;;;;;2065033;28;20620;-84
2021/01/15 04:37:37;;;;;;;8.23;5.30;;;1.30;86.10;;;;;;2078848;28;20033;-83
2021/01/15 04:38:47;;;;;;;9.82;5.75;;;1.30;86.10;;;;;;2081417;28;20098;-83
2021/01/15 04:39:48;;;;;;;9.02;5.53;;;1.30;86.10;;;;;;2081328;28;20376;-84
2021/01/15 04:40:49;;;;;;;8.95;5.40;;;1.30;86.10;;;;;;2095676;28;20032;-83
2021/01/15 04:41:52;;;;;;;9.00;6.03;;;1.30;86.10;;;;;;2097819;28;20474;-84
2021/01/15 04:42:59;;;;;;;10.00;6.15;;;1.30;86.10;;;;;;2096258;28;20024;-83
2021/01/15 04:44:01;;;;;;;9.75;6.38;;;1.30;86.10;;;;;;2091871;28;20127;-83
2021/01/15 04:45:02;;;;;;;8.85;6.03;;;1.30;86.10;;;;;;2080942;28;20721;-83
2021/01/15 04:46:04;;;;;;;10.15;6.72;;;1.30;86.10;;;;;;2089510;28;20390;-83
2021/01/15 04:47:06;;;;;;;9.48;6.22;;;1.30;86.10;;;;;;2085179;28;20505;-83
2021/01/15 04:48:15;;;;;;;8.85;5.57;;;1.30;86.10;;;;;;2089391;28;20573;-83
2021/01/15 04:49:22;;;;;;;10.15;6.07;;;1.30;86.10;;;;;;2084423;28;20052;-83
2021/01/15 04:50:23;;;;;;;9.52;6.25;;;1.30;86.20;;;;;;2083192;28;20021;-83
2021/01/15 04:51:27;;;;;;;11.05;6.40;;;1.30;86.20;;;;;;2097563;28;20494;-83
2021/01/15 04:52:38;;;;;;;11.20;6.18;;;1.30;86.20;;;;;;2089844;28;20059;-82
2021/01/15 04:53:44;;;;;;;10.02;6.18;;;1.30;86.20;;;;;;2082101;28;20052;-83
2021/01/15 04:54:53;;;;;;;9.60;6.20;;;1.20;86.10;;;;;;2084184;28;20029;-83
2021/01/15 04:55:59;;;;;;;9.02;5.90;;;1.30;86.20;;;;;;2090056;28;20411;-83
2021/01/15 04:57:07;;;;;;;13.32;6.57;;;1.20;86.10;;;;;;2081366;28;20017;-83
2021/01/15 04:58:12;;;;;;;10.00;6.45;;;1.20;86.10;;;;;;2086009;28;20025;-83
2021/01/15 04:59:13;;;;;;;11.32;6.50;;;1.20;86.10;;;;;;2090148;28;20029;-83
2021/01/15 05:00:18;;;;;;;9.95;5.93;;;1.30;86.20;;;;;;2086047;28;20041;-83
2021/01/15 05:01:19;;;;;;;9.50;6.32;;;1.20;86.20;;;;;;2088974;28;20040;-83
2021/01/15 05:02:20;;;;;;;8.63;5.95;;;1.30;86.30;;;;;;2079949;28;20044;-83
2021/01/15 05:03:24;;;;;;;9.38;6.45;;;1.30;86.20;;;;;;2064486;28;20034;-83
2021/01/15 05:04:25;;;;;;;10.85;6.70;;;1.20;86.20;;;;;;2066136;28;20022;-83
2021/01/15 05:05:27;;;;;;;9.73;6.40;;;1.20;86.20;;;;;;2080379;28;20037;-83
2021/01/15 05:06:37;;;;;;;10.32;7.07;;;1.20;86.20;;;;;;2080709;28;20034;-83
2021/01/15 05:07:39;;;;;;;10.80;6.78;;;1.20;86.30;;;;;;2081618;28;20025;-83
2021/01/15 05:08:41;;;;;;;10.30;6.80;;;1.20;86.30;;;;;;2078205;28;20041;-83
2021/01/15 05:09:46;;;;;;;11.55;6.88;;;1.30;86.30;;;;;;2064853;28;20396;-83
2021/01/15 05:10:48;;;;;;;9.65;6.43;;;1.20;86.30;;;;;;2072105;28;20072;-83
2021/01/15 05:11:52;;;;;;;9.20;6.18;;;1.20;86.30;;;;;;2077869;28;20498;-83
2021/01/15 05:12:55;;;;;;;9.95;6.55;;;1.30;86.40;;;;;;2076854;28;20232;-83
2021/01/15 05:13:56;;;;;;;9.93;6.60;;;1.20;86.40;;;;;;2081319;28;20017;-83
2021/01/15 05:14:56;;;;;;;9.45;6.60;;;1.20;86.30;;;;;;2081104;28;20064;-83
2021/01/15 05:15:57;;;;;;;11.88;7.57;;;1.20;86.40;;;;;;2080801;28;20049;-84
2021/01/15 05:17:04;;;;;;;10.13;6.78;;;1.30;86.40;;;;;;2080941;28;20400;-83
2021/01/15 05:18:06;;;;;;;10.68;6.05;;;1.20;86.40;;;;;;2084320;28;20530;-83
2021/01/15 05:19:09;;;;;;;10.95;6.43;;;1.20;86.40;;;;;;2084569;28;20017;-83
2021/01/15 05:20:13;;;;;;;10.13;6.63;;;1.20;86.50;;;;;;2104787;28;20039;-84
2021/01/15 05:21:14;;;;;;;9.88;6.28;;;1.20;86.50;;;;;;2098179;28;20060;-84
2021/01/15 05:22:14;;;;;;;10.75;6.88;;;1.20;86.50;;;;;;2080953;28;20036;-83
2021/01/15 05:23:16;;;;;;;10.82;6.82;;;1.20;86.50;;;;;;2078926;28;20033;-84
2021/01/15 05:24:17;;;;;;;12.43;7.18;;;1.20;86.50;;;;;;2081224;28;20021;-84
2021/01/15 05:25:17;;;;;;;10.75;6.65;;;1.20;86.50;;;;;;2080368;28;20055;-83
2021/01/15 05:26:18;;;;;;;10.70;7.18;;;1.20;86.60;;;;;;2081118;28;20495;-84
2021/01/15 05:28:43;;;;;;;9.20;6.13;;;1.20;86.60;;;;;;2082561;28;20099;-83
2021/01/15 05:29:47;;;;;;;10.57;6.78;;;1.20;86.70;;;;;;2097361;28;20477;-83
2021/01/15 05:30:57;;;;;;;10.73;7.07;;;1.20;86.60;;;;;;2090113;28;20078;-83
2021/01/15 05:32:01;;;;;;;;;;;1.20;86.60;;;;;;2074769;28;20033;-83
2021/01/15 05:33:02;;;;;;;10.00;6.15;;;1.20;86.60;;;;;;2076642;28;19916;-84
2021/01/15 05:34:07;;;;;;;10.45;6.53;;;1.20;86.70;;;;;;2073268;28;20034;-83
2021/01/15 05:35:08;;;;;;;11.70;6.70;;;1.20;86.60;;;;;;2089423;28;20487;-83
2021/01/15 05:36:27;;;;;;;11.45;7.13;;;1.20;86.60;;;;;;2097506;28;20041;-84
2021/01/15 05:37:28;;;;;;;11.27;6.82;;;1.20;86.60;;;;;;2080956;28;20482;-83